Lugones, Spain
Current Conditions -  °F | °C
As of 12:00 PM on Wednesday 26 Nov 2014 (Local Time) from LEAS Reporting Station
Broken Clouds Broken Clouds  
Wind Chill: 54°   Ceiling: 6800
Heat Index: 54°   Visibility: 6mi
Dew Point: 50°   Wind: 3mph
Humidity: 88%   Direction: 220°SW
Pressure: 29.91"   Gusts: NA
Location:  43.4°N, 5.81°W
Report Text: LEAS 261100Z 22003KT 190V250 9000 FEW040 BKN068 12/10 Q1013 NOSIG
Loading
Personal Weather Stations






























Interactive Weather Map New forecast layout! Learn more

10-Day Weather Forecast

Advertisements
Track Severe Weather on mobile